createdAt,value
2018-12-10T00:00:52.569Z,6.00
2018-12-10T00:03:27.593Z,6.00
2018-12-10T00:05:57.229Z,6.10
2018-12-10T00:08:26.845Z,6.00
2018-12-10T00:10:56.509Z,6.10
2018-12-10T00:13:26.142Z,6.10
2018-12-10T00:15:55.930Z,6.20
2018-12-10T00:18:25.459Z,6.30
2018-12-10T00:20:55.110Z,6.30
2018-12-10T00:23:24.801Z,6.30
2018-12-10T00:25:54.397Z,6.40
2018-12-10T00:28:24.033Z,6.30
2018-12-10T00:30:53.675Z,6.10
2018-12-10T00:33:23.348Z,6.10
2018-12-10T00:35:52.901Z,6.10
2018-12-10T00:38:22.542Z,6.10
2018-12-10T00:40:52.134Z,6.20
2018-12-10T00:43:22.038Z,6.20
2018-12-10T00:45:51.652Z,6.10
2018-12-10T00:48:21.374Z,6.20
2018-12-10T00:50:50.933Z,6.30
2018-12-10T00:53:20.573Z,6.30
2018-12-10T00:55:50.292Z,6.20
2018-12-10T00:58:20.013Z,6.30
2018-12-10T01:00:49.605Z,6.50
2018-12-10T01:03:19.404Z,6.70
2018-12-10T01:05:48.928Z,6.70
2018-12-10T01:08:18.625Z,6.70
2018-12-10T01:10:48.404Z,6.60
2018-12-10T01:13:18.053Z,6.50
2018-12-10T01:15:47.649Z,6.40
2018-12-10T01:18:17.261Z,6.60
2018-12-10T01:20:47.065Z,6.80
2018-12-10T01:23:16.696Z,6.90
2018-12-10T01:25:46.282Z,6.80
2018-12-10T01:28:15.984Z,6.70
2018-12-10T01:30:45.590Z,6.70
2018-12-10T01:33:15.216Z,6.60
2018-12-10T01:35:45.021Z,6.50
2018-12-10T01:38:14.724Z,6.50
2018-12-10T01:40:44.452Z,6.40
2018-12-10T01:43:14.053Z,6.50
2018-12-10T01:45:43.824Z,6.50
2018-12-10T01:48:13.461Z,6.30
2018-12-10T01:50:43.082Z,6.20
2018-12-10T01:53:13.293Z,6.10
2018-12-10T01:55:42.900Z,6.20
2018-12-10T01:58:12.540Z,6.30
2018-12-10T02:00:42.316Z,6.50
2018-12-10T02:03:12.125Z,6.70
2018-12-10T02:05:41.900Z,6.60
2018-12-10T02:08:11.557Z,6.50
2018-12-10T02:10:41.145Z,6.50
2018-12-10T02:13:10.758Z,6.50
2018-12-10T02:15:40.503Z,6.50
2018-12-10T02:18:10.201Z,6.70
2018-12-10T02:20:39.796Z,6.60
2018-12-10T02:23:09.392Z,6.80
2018-12-10T02:25:39.015Z,6.70
2018-12-10T02:28:08.582Z,6.60
2018-12-10T02:30:38.381Z,6.60
2018-12-10T02:33:08.061Z,6.60
2018-12-10T02:35:37.621Z,6.40
2018-12-10T02:38:07.257Z,6.50
2018-12-10T02:40:36.869Z,6.40
2018-12-10T02:43:06.623Z,6.50
2018-12-10T02:45:36.344Z,6.60
2018-12-10T02:48:05.978Z,6.70
2018-12-10T02:50:35.571Z,6.80
2018-12-10T02:53:05.212Z,6.80
2018-12-10T02:55:34.805Z,6.90
2018-12-10T02:58:04.482Z,6.90
2018-12-10T03:00:34.078Z,6.90
2018-12-10T03:03:03.830Z,6.70
2018-12-10T03:05:33.442Z,6.40
2018-12-10T03:08:03.112Z,6.30
2018-12-10T03:10:33.014Z,6.10
2018-12-10T03:13:02.566Z,6.10
2018-12-10T03:15:32.142Z,6.00
2018-12-10T03:18:01.782Z,5.80
2018-12-10T03:20:31.488Z,5.70
2018-12-10T03:23:01.083Z,5.60
2018-12-10T03:25:30.694Z,5.90
2018-12-10T03:28:00.598Z,5.80
2018-12-10T03:30:30.280Z,5.90
2018-12-10T03:32:59.896Z,5.80
2018-12-10T03:35:29.647Z,5.80
2018-12-10T03:37:59.437Z,5.60
2018-12-10T03:40:29.122Z,5.70
2018-12-10T03:42:58.778Z,5.70
2018-12-10T03:45:28.542Z,5.70
2018-12-10T03:47:58.145Z,5.80
2018-12-10T03:50:27.694Z,6.00
2018-12-10T03:52:57.478Z,6.70
2018-12-10T03:55:27.397Z,7.10
2018-12-10T03:57:56.975Z,7.40
2018-12-10T04:00:26.683Z,7.40
2018-12-10T04:02:56.250Z,7.50
2018-12-10T04:05:25.901Z,7.50
2018-12-10T04:07:55.513Z,7.40
2018-12-10T04:10:25.160Z,7.80
2018-12-10T04:12:54.753Z,7.60
2018-12-10T04:15:24.365Z,7.40
2018-12-10T04:17:54.152Z,7.20
2018-12-10T04:20:23.773Z,7.20
2018-12-10T04:22:53.396Z,7.60
2018-12-10T04:25:23.098Z,7.80
2018-12-10T04:27:52.802Z,8.00
2018-12-10T04:30:22.425Z,8.20
2018-12-10T04:32:52.132Z,8.30
2018-12-10T04:35:21.970Z,8.10
2018-12-10T04:37:51.731Z,7.70
2018-12-10T04:40:21.468Z,7.60
2018-12-10T04:42:51.260Z,7.60
2018-12-10T04:45:20.884Z,8.10
2018-12-10T04:47:50.576Z,8.40
2018-12-10T04:50:20.464Z,8.00
2018-12-10T04:52:50.017Z,7.70
2018-12-10T04:55:19.698Z,7.60
2018-12-10T04:57:49.319Z,7.60
2018-12-10T05:00:19.141Z,7.50
2018-12-10T05:02:48.727Z,7.40
2018-12-10T05:05:18.361Z,7.50
2018-12-10T05:07:48.066Z,7.40
2018-12-10T05:10:17.754Z,7.60
2018-12-10T05:12:47.388Z,7.40
2018-12-10T05:15:17.098Z,7.10
2018-12-10T05:17:46.882Z,6.90
2018-12-10T05:20:16.358Z,6.60
2018-12-10T05:22:46.012Z,6.40
2018-12-10T05:25:15.897Z,6.20
2018-12-10T05:27:45.702Z,6.00
2018-12-10T05:30:15.344Z,6.00
2018-12-10T05:32:45.052Z,6.10
2018-12-10T05:35:14.665Z,6.20
2018-12-10T05:37:44.381Z,6.10
2018-12-10T05:40:23.744Z,6.00
2018-12-10T05:42:54.522Z,6.10
2018-12-10T05:45:30.784Z,6.00
2018-12-10T05:48:10.252Z,5.80
2018-12-10T05:50:50.714Z,5.90
2018-12-10T05:53:25.509Z,6.10
2018-12-10T05:56:06.504Z,6.20
2018-12-10T05:58:41.596Z,6.10
2018-12-10T06:01:16.288Z,6.00
2018-12-10T06:03:50.616Z,5.80
2018-12-10T06:06:26.125Z,5.80
2018-12-10T06:09:00.813Z,5.70
2018-12-10T06:11:34.093Z,5.50
2018-12-10T06:14:05.817Z,5.40
2018-12-10T06:16:37.987Z,5.20
2018-12-10T06:19:09.934Z,5.10
2018-12-10T06:21:40.987Z,5.00
2018-12-10T06:24:15.875Z,4.90
2018-12-10T06:26:48.929Z,4.70
2018-12-10T06:29:20.254Z,4.50
2018-12-10T06:34:51.577Z,4.50
2018-12-10T06:37:26.206Z,4.30
2018-12-10T06:40:00.492Z,4.20
2018-12-10T06:42:30.096Z,4.10
2018-12-10T06:44:59.742Z,4.00
2018-12-10T06:47:29.535Z,4.00
2018-12-10T06:49:59.173Z,4.00
2018-12-10T06:52:28.785Z,4.00
2018-12-10T06:54:58.378Z,4.00
2018-12-10T06:57:28.320Z,4.00
2018-12-10T06:59:57.908Z,4.10
2018-12-10T07:02:27.549Z,4.40
2018-12-10T07:04:57.194Z,4.50
2018-12-10T07:07:26.835Z,4.50
2018-12-10T07:09:56.527Z,4.50
2018-12-10T07:12:26.337Z,4.80
2018-12-10T07:14:56.185Z,5.00
2018-12-10T07:17:25.847Z,5.00
2018-12-10T07:19:55.413Z,5.10
2018-12-10T07:22:24.985Z,5.50
2018-12-10T07:24:54.581Z,5.70
2018-12-10T07:27:24.228Z,5.80
2018-12-10T07:29:53.917Z,5.70
2018-12-10T07:32:23.601Z,5.70
2018-12-10T07:34:53.236Z,5.60
2018-12-10T07:37:22.834Z,5.50
2018-12-10T07:39:52.427Z,5.40
2018-12-10T07:42:22.066Z,5.30
2018-12-10T07:44:51.759Z,5.30
2018-12-10T07:47:21.465Z,5.40
2018-12-10T07:49:51.241Z,5.40
2018-12-10T07:52:20.867Z,5.40
2018-12-10T07:54:50.452Z,5.50
2018-12-10T07:57:20.080Z,5.70
2018-12-10T07:59:49.670Z,5.80
2018-12-10T08:02:19.205Z,5.90
2018-12-10T08:04:48.905Z,6.10
2018-12-10T08:07:18.524Z,6.20
2018-12-10T08:09:48.129Z,6.30
2018-12-10T08:12:17.645Z,6.40
2018-12-10T08:14:47.221Z,6.60
2018-12-10T08:17:17.016Z,6.70
2018-12-10T08:19:46.562Z,6.80
2018-12-10T08:22:16.246Z,7.00
2018-12-10T08:24:46.041Z,7.20
2018-12-10T08:27:15.622Z,7.30
2018-12-10T08:29:45.258Z,7.50
2018-12-10T08:32:14.900Z,7.70
2018-12-10T08:34:44.711Z,7.90
2018-12-10T08:37:14.513Z,8.00
2018-12-10T08:39:44.131Z,8.20
2018-12-10T08:42:13.748Z,8.40
2018-12-10T08:44:43.379Z,8.60
2018-12-10T08:47:16.188Z,8.70
2018-12-10T08:49:49.406Z,9.00
2018-12-10T08:52:19.041Z,9.10
2018-12-10T08:54:48.940Z,9.20
2018-12-10T08:57:19.455Z,9.20
2018-12-10T08:59:49.084Z,9.20
2018-12-10T09:02:18.748Z,9.30
2018-12-10T09:04:48.352Z,9.30
2018-12-10T09:07:18.002Z,9.30
2018-12-10T09:09:47.799Z,9.40
2018-12-10T09:12:17.425Z,9.40
2018-12-10T09:14:47.146Z,9.60
2018-12-10T09:17:16.898Z,9.60
2018-12-10T09:19:46.553Z,9.80
2018-12-10T09:22:16.184Z,10.00
2018-12-10T09:24:45.826Z,10.00
2018-12-10T09:27:15.545Z,10.50
2018-12-10T09:29:45.130Z,10.50
2018-12-10T09:32:14.906Z,10.50
2018-12-10T09:34:44.479Z,10.90
2018-12-10T09:37:14.172Z,11.70
2018-12-10T09:39:43.813Z,12.10
2018-12-10T09:42:13.580Z,12.20
2018-12-10T09:44:43.202Z,12.20
2018-12-10T09:47:13.005Z,12.20
2018-12-10T09:49:42.874Z,12.20
2018-12-10T09:52:12.640Z,12.30
2018-12-10T09:54:42.281Z,12.10
2018-12-10T09:57:11.947Z,12.10
2018-12-10T09:59:41.590Z,12.10
2018-12-10T10:02:12.448Z,12.10
2018-12-10T10:04:42.117Z,12.10
2018-12-10T10:07:11.764Z,12.10
2018-12-10T10:09:41.450Z,12.10
2018-12-10T10:12:11.042Z,12.10
2018-12-10T10:14:40.666Z,12.00
2018-12-10T10:17:10.265Z,12.10
2018-12-10T10:19:40.069Z,12.00
2018-12-10T10:22:09.644Z,12.00
2018-12-10T10:24:39.303Z,11.80
2018-12-10T10:27:08.909Z,11.80
2018-12-10T10:29:38.597Z,12.20
2018-12-10T10:32:08.245Z,12.90
2018-12-10T10:34:38.035Z,13.30
2018-12-10T10:37:07.650Z,13.50
2018-12-10T10:39:37.309Z,13.50
2018-12-10T10:42:07.131Z,13.60
2018-12-10T10:44:36.928Z,13.70
2018-12-10T10:47:06.792Z,13.80
2018-12-10T10:49:36.570Z,14.30
2018-12-10T10:52:06.389Z,15.30
2018-12-10T10:54:36.011Z,16.20
2018-12-10T10:57:05.789Z,16.80
2018-12-10T10:59:36.165Z,16.50
2018-12-10T11:02:11.134Z,16.60
2018-12-10T11:04:40.908Z,16.60
2018-12-10T11:07:10.936Z,16.30
2018-12-10T11:09:40.835Z,16.20
2018-12-10T11:12:10.406Z,16.40
2018-12-10T11:14:40.301Z,16.10
2018-12-10T11:17:09.857Z,16.10
2018-12-10T11:19:39.517Z,16.30
2018-12-10T11:22:09.297Z,16.40
2018-12-10T11:24:39.078Z,16.50
2018-12-10T11:27:08.848Z,16.40
2018-12-10T11:29:38.546Z,16.20
2018-12-10T11:32:08.140Z,16.30
2018-12-10T11:34:37.978Z,16.10
2018-12-10T11:37:07.616Z,16.10
2018-12-10T11:39:37.501Z,16.10
2018-12-10T11:42:07.173Z,16.00
2018-12-10T11:44:36.821Z,15.90
2018-12-10T11:47:13.039Z,16.10
2018-12-10T11:49:38.232Z,16.40
2018-12-10T11:52:07.945Z,16.30
2018-12-10T11:54:37.649Z,16.10
2018-12-10T11:57:07.272Z,16.30
2018-12-10T11:59:36.841Z,16.30
2018-12-10T12:02:06.874Z,16.40
2018-12-10T12:04:36.684Z,16.40
2018-12-10T12:07:08.863Z,16.60
2018-12-10T12:09:38.640Z,16.60
2018-12-10T12:12:08.545Z,16.50
2018-12-10T12:14:38.293Z,16.50
2018-12-10T12:17:07.853Z,16.60
2018-12-10T12:19:37.455Z,16.80
2018-12-10T12:22:07.119Z,16.70
2018-12-10T12:24:36.652Z,16.60
2018-12-10T12:27:06.278Z,17.10
2018-12-10T12:29:35.919Z,16.90
2018-12-10T12:32:05.757Z,16.70
2018-12-10T12:34:35.329Z,16.60
2018-12-10T12:37:05.133Z,16.60
2018-12-10T12:39:34.922Z,16.70
2018-12-10T12:42:04.473Z,16.90
2018-12-10T12:44:34.082Z,17.20
2018-12-10T12:47:03.818Z,17.40
2018-12-10T12:49:33.448Z,17.00
2018-12-10T12:52:03.112Z,16.80
2018-12-10T12:54:32.773Z,16.60
2018-12-10T12:57:02.517Z,16.30
2018-12-10T12:59:32.136Z,16.30
2018-12-10T13:02:01.893Z,16.40
2018-12-10T13:04:34.083Z,16.00
2018-12-10T13:07:04.045Z,16.00
2018-12-10T13:09:33.893Z,16.20
2018-12-10T13:12:04.106Z,16.10
2018-12-10T13:14:33.773Z,16.20
2018-12-10T13:17:03.395Z,16.60
2018-12-10T13:19:33.141Z,16.60
2018-12-10T13:22:02.749Z,16.70
2018-12-10T13:24:32.298Z,16.60
2018-12-10T13:27:02.282Z,16.50
2018-12-10T13:29:31.910Z,16.40
2018-12-10T13:32:01.669Z,16.40
2018-12-10T13:34:31.406Z,16.10
2018-12-10T13:37:00.940Z,15.80
2018-12-10T13:39:30.508Z,15.70
2018-12-10T13:42:00.037Z,15.70
2018-12-10T13:44:29.668Z,15.60
2018-12-10T13:46:59.354Z,15.40
2018-12-10T13:49:28.838Z,15.30
2018-12-10T13:51:58.478Z,15.40
2018-12-10T13:54:28.144Z,15.30
2018-12-10T13:56:57.801Z,15.10
2018-12-10T13:59:27.510Z,15.10
2018-12-10T14:01:57.299Z,14.90
2018-12-10T14:04:31.411Z,14.80
2018-12-10T14:07:01.065Z,14.70
2018-12-10T14:09:30.716Z,14.70
2018-12-10T14:12:00.412Z,14.70
2018-12-10T14:14:30.060Z,14.80
2018-12-10T14:16:59.757Z,15.30
2018-12-10T14:19:29.751Z,15.60
2018-12-10T14:21:59.405Z,15.90
2018-12-10T14:24:29.157Z,16.20
2018-12-10T14:26:59.014Z,16.40
2018-12-10T14:29:28.785Z,17.00
2018-12-10T14:31:58.449Z,16.90
2018-12-10T14:34:28.333Z,16.70
2018-12-10T14:36:58.231Z,16.90
2018-12-10T14:39:27.886Z,16.60
2018-12-10T14:41:57.738Z,16.10
2018-12-10T14:44:27.317Z,15.60
2018-12-10T14:46:57.009Z,15.40
2018-12-10T14:49:26.631Z,15.60
2018-12-10T14:51:56.205Z,15.90
2018-12-10T14:54:25.903Z,16.00
2018-12-10T14:56:55.437Z,16.20
2018-12-10T14:59:25.126Z,16.00
2018-12-10T15:01:54.835Z,15.90
2018-12-10T15:04:24.617Z,16.00
2018-12-10T15:06:54.268Z,16.00
2018-12-10T15:09:23.954Z,16.00
2018-12-10T15:11:53.576Z,15.60
2018-12-10T15:14:23.285Z,15.30
2018-12-10T15:16:55.510Z,15.00
2018-12-10T15:19:26.755Z,14.80
2018-12-10T15:21:58.526Z,14.80
2018-12-10T15:24:30.173Z,14.40
2018-12-10T15:27:00.602Z,14.20
2018-12-10T15:29:30.150Z,14.00
2018-12-10T15:32:01.167Z,13.60
2018-12-10T15:34:30.757Z,12.90
2018-12-10T15:37:00.368Z,12.40
2018-12-10T15:39:30.210Z,12.20
2018-12-10T15:41:59.829Z,12.00
2018-12-10T15:44:29.593Z,11.80
2018-12-10T15:46:59.240Z,11.70
2018-12-10T15:49:28.858Z,11.60
2018-12-10T15:51:58.497Z,11.30
2018-12-10T15:54:29.066Z,11.10
2018-12-10T15:57:00.348Z,10.90
2018-12-10T15:59:30.380Z,10.80
2018-12-10T16:02:04.170Z,10.70
2018-12-10T16:04:35.506Z,10.60
2018-12-10T16:07:07.440Z,10.50
2018-12-10T16:09:38.993Z,10.40
2018-12-10T16:12:09.758Z,10.30
2018-12-10T16:14:40.380Z,10.20
2018-12-10T16:17:11.010Z,10.10
2018-12-10T16:19:46.301Z,10.20
2018-12-10T16:22:17.062Z,10.30
2018-12-10T16:24:47.534Z,10.20
2018-12-10T16:27:18.546Z,10.10
2018-12-10T16:29:50.273Z,9.90
2018-12-10T16:32:20.411Z,9.80
2018-12-10T16:34:50.692Z,9.90
2018-12-10T16:37:20.529Z,9.90
2018-12-10T16:39:50.454Z,9.90
2018-12-10T16:42:20.366Z,9.90
2018-12-10T16:44:50.588Z,9.90
2018-12-10T16:47:20.897Z,9.90
2018-12-10T16:49:50.738Z,9.90
2018-12-10T16:52:20.569Z,9.80
2018-12-10T16:54:50.232Z,9.70
2018-12-10T16:57:19.871Z,9.70
2018-12-10T16:59:49.747Z,9.70
2018-12-10T17:02:19.301Z,9.60
2018-12-10T17:04:48.881Z,9.40
2018-12-10T17:07:18.657Z,9.10
2018-12-10T17:09:48.200Z,8.80
2018-12-10T17:12:17.923Z,8.60
2018-12-10T17:14:47.524Z,8.40
2018-12-10T17:17:17.150Z,8.20
2018-12-10T17:19:46.823Z,8.00
2018-12-10T17:22:16.613Z,7.70
2018-12-10T17:24:46.368Z,7.60
2018-12-10T17:27:15.975Z,7.40
2018-12-10T17:29:45.696Z,7.10
2018-12-10T17:32:15.308Z,6.90
2018-12-10T17:34:44.971Z,6.80
2018-12-10T17:37:15.532Z,6.30
2018-12-10T17:39:45.085Z,5.70
2018-12-10T17:42:14.850Z,5.60
2018-12-10T17:44:44.688Z,5.60
2018-12-10T17:47:14.273Z,5.50
2018-12-10T17:49:44.333Z,5.40
2018-12-10T17:52:14.783Z,5.40
2018-12-10T17:54:47.768Z,5.30
2018-12-10T17:57:17.468Z,5.20
2018-12-10T17:59:47.192Z,5.20
2018-12-10T18:02:16.982Z,5.20
2018-12-10T18:04:46.513Z,5.30
2018-12-10T18:07:16.316Z,5.20
2018-12-10T18:09:45.952Z,5.10
2018-12-10T18:12:18.245Z,5.00
2018-12-10T18:14:47.906Z,5.00
2018-12-10T18:17:17.616Z,5.00
2018-12-10T18:19:47.534Z,4.80
2018-12-10T18:22:17.235Z,4.70
2018-12-10T18:24:47.133Z,4.50
2018-12-10T18:27:17.063Z,4.50
2018-12-10T18:29:46.709Z,4.40
2018-12-10T18:32:18.258Z,4.50
2018-12-10T18:34:48.060Z,4.90
2018-12-10T18:37:17.817Z,5.10
2018-12-10T18:39:47.425Z,5.30
2018-12-10T18:42:17.289Z,5.40
2018-12-10T18:44:46.972Z,5.60
2018-12-10T18:47:16.607Z,6.10
2018-12-10T18:49:46.213Z,6.60
2018-12-10T18:52:15.868Z,6.80
2018-12-10T18:54:45.483Z,7.40
2018-12-10T18:57:15.258Z,8.10
2018-12-10T18:59:45.119Z,8.70
2018-12-10T19:02:14.793Z,8.80
2018-12-10T19:04:44.357Z,8.80
2018-12-10T19:07:14.037Z,9.00
2018-12-10T19:09:43.791Z,9.20
2018-12-10T19:12:13.543Z,9.00
2018-12-10T19:14:43.361Z,8.80
2018-12-10T19:17:12.972Z,8.00
2018-12-10T19:19:42.708Z,7.50
2018-12-10T19:22:12.329Z,7.20
2018-12-10T19:24:41.924Z,7.10
2018-12-10T19:27:11.527Z,6.90
2018-12-10T19:29:41.143Z,6.80
2018-12-10T19:32:13.336Z,6.90
2018-12-10T19:34:44.648Z,6.70
2018-12-10T19:37:14.757Z,6.70
2018-12-10T19:39:44.292Z,6.70
2018-12-10T19:42:14.171Z,6.80
2018-12-10T19:44:43.990Z,6.40
2018-12-10T19:47:13.908Z,6.20
2018-12-10T19:49:44.785Z,6.10
2018-12-10T19:52:14.487Z,6.60
2018-12-10T19:54:44.219Z,7.10
2018-12-10T19:57:13.854Z,7.30
2018-12-10T19:59:43.807Z,6.80
2018-12-10T20:02:13.853Z,6.50
2018-12-10T20:04:43.500Z,6.70
2018-12-10T20:07:13.600Z,6.80
2018-12-10T20:09:43.201Z,6.60
2018-12-10T20:12:13.068Z,6.30
2018-12-10T20:14:42.673Z,6.70
2018-12-10T20:17:12.356Z,6.90
2018-12-10T20:19:45.245Z,6.70
2018-12-10T20:22:14.882Z,6.60
2018-12-10T20:24:44.650Z,6.40
2018-12-10T20:27:14.278Z,6.20
2018-12-10T20:29:44.034Z,5.90
2018-12-10T20:32:13.793Z,5.60
2018-12-10T20:34:44.117Z,5.40
2018-12-10T20:37:13.971Z,5.30
2018-12-10T20:39:43.712Z,5.40
2018-12-10T20:42:13.389Z,5.60
2018-12-10T20:44:43.028Z,5.70
2018-12-10T20:47:15.017Z,5.70
2018-12-10T20:49:44.594Z,5.70
2018-12-10T20:52:14.264Z,5.50
2018-12-10T20:54:44.049Z,5.00
2018-12-10T20:57:13.645Z,4.80
2018-12-10T20:59:43.429Z,4.70
2018-12-10T21:02:13.056Z,4.70
2018-12-10T21:04:42.676Z,4.80
2018-12-10T21:07:12.321Z,4.70
2018-12-10T21:09:42.168Z,4.60
2018-12-10T21:12:11.766Z,4.50
2018-12-10T21:14:41.415Z,4.30
2018-12-10T21:17:11.235Z,4.10
2018-12-10T21:19:40.841Z,4.10
2018-12-10T21:22:10.460Z,4.00
2018-12-10T21:24:40.230Z,3.90
2018-12-10T21:27:10.509Z,3.80
2018-12-10T21:29:40.257Z,3.80
2018-12-10T21:32:10.092Z,3.90
2018-12-10T21:34:39.732Z,4.00
2018-12-10T21:37:09.373Z,3.90
2018-12-10T21:39:38.992Z,3.70
2018-12-10T21:42:08.841Z,3.60
2018-12-10T21:44:38.717Z,3.50
2018-12-10T21:47:08.488Z,3.40
2018-12-10T21:49:38.032Z,3.20
2018-12-10T21:52:07.674Z,3.20
2018-12-10T21:54:37.285Z,3.10
2018-12-10T21:57:07.108Z,3.00
2018-12-10T21:59:36.888Z,2.70
2018-12-10T22:02:06.681Z,2.50
2018-12-10T22:04:36.491Z,2.40
2018-12-10T22:07:06.163Z,2.40
2018-12-10T22:09:35.801Z,2.70
2018-12-10T22:12:05.456Z,2.80
2018-12-10T22:14:35.060Z,2.60
2018-12-10T22:17:04.796Z,2.50
2018-12-10T22:19:34.542Z,2.70
2018-12-10T22:22:04.200Z,2.90
2018-12-10T22:24:33.742Z,3.00
2018-12-10T22:27:03.313Z,3.00
2018-12-10T22:29:32.901Z,3.10
2018-12-10T22:32:02.606Z,3.20
2018-12-10T22:34:32.389Z,3.20
2018-12-10T22:37:01.997Z,3.10
2018-12-10T22:39:31.650Z,3.00
2018-12-10T22:42:01.273Z,2.90
2018-12-10T22:44:30.816Z,2.90
2018-12-10T22:47:00.669Z,2.80
2018-12-10T22:49:30.378Z,3.00
2018-12-10T22:51:59.959Z,3.30
2018-12-10T22:54:29.580Z,3.20
2018-12-10T22:56:59.410Z,3.10
2018-12-10T22:59:28.959Z,3.00
2018-12-10T23:01:58.604Z,3.10
2018-12-10T23:04:28.212Z,3.10
2018-12-10T23:06:57.921Z,3.00
2018-12-10T23:09:27.600Z,3.00
2018-12-10T23:11:57.273Z,3.10
2018-12-10T23:14:26.936Z,3.10
2018-12-10T23:16:56.661Z,2.90
2018-12-10T23:19:26.676Z,2.90
2018-12-10T23:21:56.317Z,2.90
2018-12-10T23:24:26.004Z,2.90
2018-12-10T23:26:55.561Z,2.70
2018-12-10T23:29:25.175Z,2.60
2018-12-10T23:31:54.820Z,2.60
2018-12-10T23:34:24.934Z,2.50
2018-12-10T23:36:54.654Z,2.50
2018-12-10T23:39:24.308Z,2.60
2018-12-10T23:41:53.916Z,2.60
2018-12-10T23:44:28.676Z,2.60
2018-12-10T23:46:58.465Z,2.70
2018-12-10T23:49:28.268Z,2.70
2018-12-10T23:51:57.805Z,2.80
2018-12-10T23:54:27.585Z,2.80
2018-12-10T23:56:57.242Z,2.90
2018-12-10T23:59:26.832Z,3.00
